createdAt,value
2022-12-05T00:08:23.392Z,1.70
2022-12-05T00:18:32.300Z,1.80
2022-12-05T00:28:39.970Z,1.70
2022-12-05T00:38:49.030Z,1.70
2022-12-05T00:48:57.533Z,1.70
2022-12-05T00:59:07.226Z,1.60
2022-12-05T01:09:17.519Z,2.03
2022-12-05T01:19:28.315Z,2.17
2022-12-05T01:29:36.177Z,2.70
2022-12-05T01:39:45.442Z,2.30
2022-12-05T01:49:52.914Z,2.70
2022-12-05T02:00:05.135Z,3.00
2022-12-05T02:10:19.092Z,2.70
2022-12-05T02:20:48.676Z,2.50
2022-12-05T02:31:10.441Z,2.30
2022-12-05T02:41:40.693Z,2.33
2022-12-05T02:51:56.457Z,2.70
2022-12-05T03:02:03.904Z,2.40
2022-12-05T03:12:16.235Z,2.35
2022-12-05T03:22:29.353Z,2.38
2022-12-05T03:32:45.027Z,2.10
2022-12-05T03:43:27.121Z,1.83
2022-12-05T03:53:51.507Z,2.00
2022-12-05T04:04:02.380Z,1.75
2022-12-05T04:14:14.500Z,1.77
2022-12-05T04:24:40.704Z,1.95
2022-12-05T04:34:57.313Z,1.75
2022-12-05T04:45:09.045Z,1.85
2022-12-05T04:55:26.747Z,1.83
2022-12-05T05:05:42.164Z,1.88
2022-12-05T05:15:51.470Z,2.00
2022-12-05T05:25:59.351Z,1.70
2022-12-05T05:36:11.533Z,1.80
2022-12-05T05:46:56.622Z,1.95
2022-12-05T05:57:05.820Z,2.20
2022-12-05T06:07:13.160Z,2.28
2022-12-05T06:17:22.458Z,2.00
2022-12-05T06:27:32.091Z,2.25
2022-12-05T06:38:06.666Z,2.00
2022-12-05T06:48:13.812Z,1.80
2022-12-05T06:58:25.156Z,1.70
2022-12-05T07:08:32.237Z,2.15
2022-12-05T07:19:27.614Z,1.75
2022-12-05T07:29:37.124Z,1.98
2022-12-05T07:39:45.261Z,2.00
2022-12-05T07:49:54.050Z,1.40
2022-12-05T08:00:01.232Z,1.70
2022-12-05T08:10:11.560Z,1.52
2022-12-05T08:20:18.874Z,1.20
2022-12-05T08:30:27.892Z,1.00
2022-12-05T08:40:39.046Z,1.10
2022-12-05T08:50:47.938Z,1.17
2022-12-05T09:00:55.089Z,0.90
2022-12-05T09:11:07.414Z,0.95
2022-12-05T09:21:16.035Z,0.90
2022-12-05T09:31:26.143Z,0.90
2022-12-05T09:42:09.810Z,1.00
2022-12-05T09:52:27.357Z,0.90
2022-12-05T10:02:44.531Z,0.70
2022-12-05T10:13:03.112Z,0.77
2022-12-05T10:23:48.741Z,0.80
2022-12-05T10:33:52.731Z,0.80
2022-12-05T10:44:02.374Z,0.70
2022-12-05T10:54:20.036Z,0.80
2022-12-05T11:04:29.752Z,0.70
2022-12-05T11:14:38.651Z,0.60
2022-12-05T11:24:45.684Z,0.70
2022-12-05T11:34:59.984Z,0.70
2022-12-05T11:45:33.471Z,0.80
2022-12-05T11:55:48.109Z,0.88
2022-12-05T12:06:05.141Z,0.60
2022-12-05T12:16:20.837Z,0.70
2022-12-05T12:26:37.815Z,0.70
2022-12-05T12:36:51.853Z,0.70
2022-12-05T12:47:04.142Z,0.80
2022-12-05T12:57:24.102Z,0.70
2022-12-05T13:07:36.336Z,0.70
2022-12-05T13:17:48.501Z,0.57
2022-12-05T13:28:01.250Z,0.70
2022-12-05T13:38:36.002Z,0.60
2022-12-05T13:48:47.305Z,0.80
2022-12-05T13:58:57.114Z,0.55
2022-12-05T14:09:05.191Z,0.60
2022-12-05T14:19:33.851Z,0.68
2022-12-05T14:30:01.885Z,0.70
2022-12-05T14:40:25.131Z,0.60
2022-12-05T14:50:46.308Z,0.70
2022-12-05T15:01:01.883Z,0.60
2022-12-05T15:11:09.348Z,0.60
2022-12-05T15:21:29.344Z,0.80
2022-12-05T15:31:39.071Z,0.90
2022-12-05T15:41:48.261Z,1.17
2022-12-05T15:51:59.288Z,1.20
2022-12-05T16:02:16.478Z,1.30
2022-12-05T16:12:29.924Z,1.50
2022-12-05T16:22:44.146Z,1.42
2022-12-05T16:32:54.698Z,1.53
2022-12-05T16:43:08.093Z,1.70
2022-12-05T16:53:36.011Z,1.30
2022-12-05T17:03:45.249Z,1.45
2022-12-05T17:13:53.068Z,2.00
2022-12-05T17:24:02.357Z,2.58
2022-12-05T17:34:18.469Z,2.90
2022-12-05T17:44:27.411Z,22.77
2022-12-05T17:54:35.035Z,18.60
2022-12-05T18:04:43.978Z,11.90
2022-12-05T18:14:51.309Z,8.15
2022-12-05T18:25:01.510Z,6.65
2022-12-05T18:35:13.047Z,5.18
2022-12-05T18:45:22.499Z,4.82
2022-12-05T18:55:51.880Z,4.43
2022-12-05T19:05:59.054Z,4.18
2022-12-05T19:16:06.862Z,3.67
2022-12-05T19:26:16.038Z,3.63
2022-12-05T19:36:24.756Z,2.70
2022-12-05T19:46:35.546Z,2.67
2022-12-05T19:56:43.458Z,2.60
2022-12-05T20:07:06.948Z,2.60
2022-12-05T20:17:14.424Z,2.70
2022-12-05T20:27:23.285Z,3.20
2022-12-05T20:37:35.229Z,2.80
2022-12-05T20:47:44.280Z,2.85
2022-12-05T20:57:52.032Z,3.10
2022-12-05T21:08:04.534Z,3.63
2022-12-05T21:18:16.426Z,3.33
2022-12-05T21:28:29.636Z,3.33
2022-12-05T21:38:40.118Z,3.13
2022-12-05T21:48:50.314Z,3.30
2022-12-05T21:59:04.224Z,3.28
2022-12-05T22:09:16.920Z,3.60
2022-12-05T22:19:49.272Z,2.90
2022-12-05T22:30:13.920Z,3.00
2022-12-05T22:40:39.166Z,2.80
2022-12-05T22:51:14.554Z,2.50
2022-12-05T23:01:28.242Z,3.00
2022-12-05T23:11:37.536Z,2.25
2022-12-05T23:21:44.983Z,2.45
2022-12-05T23:31:54.306Z,5.88
2022-12-05T23:42:02.247Z,6.65
2022-12-05T23:52:12.096Z,5.05
